CYKZ/YKZ METAR and TAF weather

Enter ICAO airport designator
Station Type Date Time Source
CYKZ METAR 2018/10/22 17:00 UTC NOAA

CYKZ 221700Z 26007KT 220V300 15SM BKN043 BKN075 11/M00 A3002 RMK CU6AC1 AC TR SLP172


Station Type Date Time Source
CYKZ Decoded METAR 2018/10/22 17:00 UTC NOAA

Toronto Buttonville, Canada (CYKZ) 43-52N 079-22W
Oct 22, 2018 - 01:00 PM EDT / 2018.10.22 1700 UTC
Wind: from the W (260 degrees) at 8 MPH (7 KT) (direction variable):0
Visibility: 15 mile(s):0
Sky conditions: mostly cloudy
Temperature: 51 F (11 C)
Dew Point: 32 F (0 C)
Relative Humidity: 46%
Pressure (altimeter): 30.02 in. Hg (1016 hPa)
ob: CYKZ 221700Z 26007KT 220V300 15SM BKN043 BKN075 11/M00 A3002 RMK CU6AC1 AC TR SLP172
cycle: 17

Station Type Date Time Source
CYKZ TAF 2018/10/22 12:42 UTC NOAA

TAF CYKZ 221138Z 2212/2224 VRB03KT P6SM SCT040 BKN090
FM221300 24005KT P6SM SCT040
TEMPO 2213/2221 BKN040
FM222100 23008KT P6SM BKN040
RMK NXT FCST BY 221800Z


Example: see airport list